createdAt,value
2022-12-17T00:00:03.718Z,56.52
2022-12-17T00:01:03.764Z,45.98
2022-12-17T00:02:03.600Z,56.63
2022-12-17T00:03:03.701Z,54.75
2022-12-17T00:04:03.776Z,48.93
2022-12-17T00:05:03.592Z,56.75
2022-12-17T00:06:03.575Z,53.53
2022-12-17T00:07:03.568Z,54.31
2022-12-17T00:08:03.551Z,64.64
2022-12-17T00:09:03.560Z,54.54
2022-12-17T00:10:04.280Z,51.76
2022-12-17T00:11:03.536Z,56.23
2022-12-17T00:12:03.553Z,52.82
2022-12-17T00:13:03.529Z,64.64
2022-12-17T00:14:03.508Z,55.63
2022-12-17T00:15:03.515Z,55.60
2022-12-17T00:16:03.535Z,60.99
2022-12-17T00:17:03.493Z,60.11
2022-12-17T00:18:03.484Z,61.03
2022-12-17T00:19:03.471Z,61.32
2022-12-17T00:20:03.473Z,61.25
2022-12-17T00:21:03.474Z,54.30
2022-12-17T00:22:03.457Z,57.31
2022-12-17T00:23:04.212Z,59.38
2022-12-17T00:24:05.219Z,64.36
2022-12-17T00:25:03.427Z,55.45
2022-12-17T00:26:03.434Z,59.69
2022-12-17T00:28:46.104Z,52.52
2022-12-17T00:29:46.132Z,57.23
2022-12-17T00:30:46.099Z,53.24
2022-12-17T00:31:46.144Z,56.72
2022-12-17T00:32:46.085Z,50.35
2022-12-17T00:33:46.071Z,58.44
2022-12-17T00:34:47.161Z,60.02
2022-12-17T00:35:47.970Z,58.11
2022-12-17T00:36:47.160Z,55.81
2022-12-17T00:37:47.216Z,47.87
2022-12-17T00:38:47.186Z,54.71
2022-12-17T00:39:47.120Z,60.10
2022-12-17T00:40:47.117Z,59.71
2022-12-17T00:41:47.132Z,60.13
2022-12-17T00:42:47.097Z,60.28
2022-12-17T00:43:47.095Z,58.01
2022-12-17T00:44:47.077Z,60.10
2022-12-17T00:45:47.124Z,58.85
2022-12-17T00:46:47.954Z,60.98
2022-12-17T00:47:47.076Z,60.08
2022-12-17T00:48:47.052Z,57.56
2022-12-17T00:49:47.036Z,54.08
2022-12-17T00:50:47.035Z,47.61
2022-12-17T00:51:47.022Z,57.84
2022-12-17T00:52:47.026Z,59.27
2022-12-17T00:53:47.029Z,57.73
2022-12-17T00:54:47.010Z,56.45
2022-12-17T00:55:46.992Z,45.23
2022-12-17T00:56:46.994Z,49.09
2022-12-17T00:57:46.985Z,62.27
2022-12-17T00:58:46.972Z,59.09
2022-12-17T00:59:46.975Z,51.84
2022-12-17T01:00:47.013Z,59.57
2022-12-17T01:01:47.126Z,52.55
2022-12-17T01:02:47.131Z,52.30
2022-12-17T01:03:46.936Z,58.75
2022-12-17T01:04:46.935Z,50.63
2022-12-17T01:05:46.921Z,57.61
2022-12-17T01:06:46.918Z,52.81
2022-12-17T01:07:46.912Z,56.18
2022-12-17T01:08:46.911Z,56.14
2022-12-17T01:09:46.893Z,58.99
2022-12-17T01:10:46.898Z,58.22
2022-12-17T01:11:46.880Z,59.46
2022-12-17T01:12:46.867Z,60.43
2022-12-17T01:13:46.875Z,56.66
2022-12-17T01:14:46.860Z,64.35
2022-12-17T01:15:46.861Z,63.36
2022-12-17T01:16:46.955Z,62.98
2022-12-17T01:17:46.836Z,53.40
2022-12-17T01:18:46.845Z,56.70
2022-12-17T01:19:46.821Z,55.82
2022-12-17T01:20:46.814Z,54.82
2022-12-17T01:21:46.818Z,58.92
2022-12-17T01:22:46.794Z,63.12
2022-12-17T01:23:46.800Z,57.11
2022-12-17T01:24:46.778Z,54.09
2022-12-17T01:25:46.774Z,57.12
2022-12-17T01:26:46.787Z,52.19
2022-12-17T01:27:46.763Z,55.61
2022-12-17T01:28:46.752Z,59.14
2022-12-17T01:29:46.740Z,56.81
2022-12-17T01:30:46.736Z,53.07
2022-12-17T01:31:46.778Z,57.90
2022-12-17T01:32:46.717Z,60.85
2022-12-17T01:33:46.725Z,51.53
2022-12-17T01:34:46.708Z,59.02
2022-12-17T01:35:46.692Z,61.51
2022-12-17T01:36:46.684Z,61.48
2022-12-17T01:37:46.681Z,48.97
2022-12-17T01:38:46.685Z,50.72
2022-12-17T01:39:46.657Z,48.48
2022-12-17T01:40:47.663Z,49.78
2022-12-17T01:41:46.657Z,54.03
2022-12-17T01:42:46.632Z,52.54
2022-12-17T01:43:46.640Z,60.71
2022-12-17T01:44:46.633Z,55.40
2022-12-17T01:45:46.668Z,52.09
2022-12-17T01:46:46.606Z,55.53
2022-12-17T01:47:46.605Z,57.62
2022-12-17T01:48:46.596Z,61.31
2022-12-17T01:49:46.595Z,57.08
2022-12-17T01:50:46.609Z,59.60
2022-12-17T01:51:46.586Z,54.38
2022-12-17T01:52:46.566Z,55.23
2022-12-17T01:53:46.562Z,53.57
2022-12-17T01:54:46.591Z,51.27
2022-12-17T01:55:46.537Z,50.45
2022-12-17T01:56:46.539Z,52.50
2022-12-17T01:57:46.601Z,53.51
2022-12-17T01:58:46.523Z,43.26
2022-12-17T01:59:46.510Z,46.80
2022-12-17T02:00:46.571Z,48.53
2022-12-17T02:01:46.728Z,59.66
2022-12-17T02:02:46.566Z,58.86
2022-12-17T02:03:46.485Z,56.80
2022-12-17T02:04:46.488Z,57.50
2022-12-17T02:05:46.470Z,62.18
2022-12-17T02:06:46.454Z,55.31
2022-12-17T02:07:46.514Z,51.46
2022-12-17T02:08:46.440Z,61.13
2022-12-17T02:09:46.462Z,45.05
2022-12-17T02:10:46.422Z,55.33
2022-12-17T02:11:46.474Z,50.46
2022-12-17T02:12:46.411Z,56.31
2022-12-17T02:13:46.417Z,56.09
2022-12-17T02:14:46.403Z,52.16
2022-12-17T02:15:46.397Z,58.15
2022-12-17T02:16:46.461Z,54.98
2022-12-17T02:17:46.377Z,62.66
2022-12-17T02:18:46.366Z,61.06
2022-12-17T02:19:46.378Z,53.71
2022-12-17T02:20:46.352Z,57.50
2022-12-17T02:21:46.359Z,55.28
2022-12-17T02:22:46.342Z,58.94
2022-12-17T02:23:46.343Z,51.80
2022-12-17T02:24:46.329Z,58.37
2022-12-17T02:25:46.310Z,50.32
2022-12-17T02:26:46.318Z,45.07
2022-12-17T02:27:46.314Z,56.99
2022-12-17T02:28:46.286Z,59.15
2022-12-17T02:29:46.277Z,58.96
2022-12-17T02:30:46.273Z,58.37
2022-12-17T02:31:46.342Z,64.75
2022-12-17T02:32:46.308Z,52.89
2022-12-17T02:33:46.983Z,60.11
2022-12-17T02:34:46.258Z,58.37
2022-12-17T02:35:46.232Z,52.71
2022-12-17T02:36:46.243Z,51.67
2022-12-17T02:37:46.226Z,56.21
2022-12-17T02:38:46.209Z,55.61
2022-12-17T02:39:46.199Z,49.25
2022-12-17T02:40:46.192Z,54.68
2022-12-17T02:41:46.196Z,45.24
2022-12-17T02:42:46.178Z,59.80
2022-12-17T02:43:46.166Z,51.45
2022-12-17T02:44:46.165Z,53.65
2022-12-17T02:45:46.241Z,53.85
2022-12-17T02:46:46.151Z,51.63
2022-12-17T02:47:46.148Z,51.42
2022-12-17T02:48:46.129Z,60.72
2022-12-17T02:49:46.119Z,54.09
2022-12-17T02:50:46.117Z,59.02
2022-12-17T02:51:46.214Z,58.10
2022-12-17T02:52:46.099Z,61.41
2022-12-17T02:53:46.104Z,49.77
2022-12-17T02:54:46.082Z,50.86
2022-12-17T02:55:46.073Z,63.25
2022-12-17T02:56:46.071Z,61.72
2022-12-17T02:57:49.572Z,60.99
2022-12-17T02:58:48.062Z,58.58
2022-12-17T02:59:46.046Z,55.40
2022-12-17T03:00:46.089Z,48.54
2022-12-17T03:01:46.167Z,59.15
2022-12-17T03:02:46.146Z,52.73
2022-12-17T03:03:50.058Z,56.96
2022-12-17T03:04:47.012Z,58.64
2022-12-17T03:05:46.239Z,61.65
2022-12-17T03:06:45.998Z,60.74
2022-12-17T03:07:45.990Z,58.03
2022-12-17T03:08:45.988Z,49.76
2022-12-17T03:09:45.974Z,55.14
2022-12-17T03:10:45.963Z,63.49
2022-12-17T03:11:46.944Z,48.20
2022-12-17T03:12:45.954Z,58.10
2022-12-17T03:13:45.952Z,42.40
2022-12-17T03:14:45.943Z,44.71
2022-12-17T03:15:45.924Z,55.90
2022-12-17T03:16:46.599Z,56.17
2022-12-17T03:17:45.931Z,54.26
2022-12-17T03:18:45.926Z,48.01
2022-12-17T03:19:45.916Z,53.43
2022-12-17T03:20:45.893Z,63.59
2022-12-17T03:21:45.887Z,63.13
2022-12-17T03:22:45.875Z,56.28
2022-12-17T03:23:45.901Z,56.90
2022-12-17T03:24:45.861Z,62.39
2022-12-17T03:25:45.854Z,58.30
2022-12-17T03:26:45.849Z,49.72
2022-12-17T03:27:45.865Z,57.37
2022-12-17T03:28:46.823Z,57.57
2022-12-17T03:29:45.823Z,53.58
2022-12-17T03:30:49.187Z,54.92
2022-12-17T03:31:46.807Z,55.87
2022-12-17T03:32:45.803Z,52.33
2022-12-17T03:33:45.794Z,55.59
2022-12-17T03:34:45.784Z,51.51
2022-12-17T03:35:45.799Z,59.10
2022-12-17T03:36:45.778Z,68.91
2022-12-17T03:37:45.758Z,63.07
2022-12-17T03:38:45.752Z,55.63
2022-12-17T03:39:45.781Z,54.48
2022-12-17T03:40:45.736Z,58.82
2022-12-17T03:41:45.735Z,54.93
2022-12-17T03:42:45.730Z,55.19
2022-12-17T03:43:45.716Z,62.18
2022-12-17T03:44:45.703Z,58.80
2022-12-17T03:45:45.736Z,54.93
2022-12-17T03:46:45.693Z,56.11
2022-12-17T03:47:45.709Z,53.99
2022-12-17T03:48:46.488Z,61.62
2022-12-17T03:49:45.675Z,43.79
2022-12-17T03:50:45.664Z,45.03
2022-12-17T03:51:45.656Z,52.34
2022-12-17T03:52:45.662Z,57.58
2022-12-17T03:53:45.641Z,53.74
2022-12-17T03:54:47.563Z,46.02
2022-12-17T03:55:45.629Z,55.63
2022-12-17T03:56:45.625Z,50.99
2022-12-17T03:57:45.614Z,56.69
2022-12-17T03:58:46.492Z,46.56
2022-12-17T03:59:45.595Z,49.48
2022-12-17T04:00:45.584Z,59.52
2022-12-17T04:01:45.711Z,57.24
2022-12-17T04:02:45.827Z,63.53
2022-12-17T04:03:45.674Z,55.23
2022-12-17T04:04:45.565Z,47.90
2022-12-17T04:05:45.546Z,55.22
2022-12-17T04:06:45.537Z,45.29
2022-12-17T04:07:45.527Z,45.01
2022-12-17T04:08:45.524Z,60.27
2022-12-17T04:09:45.513Z,51.56
2022-12-17T04:10:45.505Z,50.48
2022-12-17T04:11:45.516Z,56.43
2022-12-17T04:12:46.000Z,46.56
2022-12-17T04:13:45.844Z,51.98
2022-12-17T04:14:45.472Z,52.96
2022-12-17T04:15:45.557Z,56.19
2022-12-17T04:16:45.467Z,57.20
2022-12-17T04:17:45.452Z,57.28
2022-12-17T04:18:45.451Z,56.37
2022-12-17T04:19:45.432Z,59.95
2022-12-17T04:20:45.431Z,55.87
2022-12-17T04:21:45.437Z,56.04
2022-12-17T04:22:45.997Z,56.12
2022-12-17T04:23:45.408Z,56.19
2022-12-17T04:24:45.408Z,61.76
2022-12-17T04:25:45.403Z,58.27
2022-12-17T04:26:45.394Z,53.82
2022-12-17T04:27:45.384Z,58.40
2022-12-17T04:28:45.379Z,58.56
2022-12-17T04:31:51.936Z,60.65
2022-12-17T04:32:51.926Z,58.53
2022-12-17T04:33:51.917Z,58.27
2022-12-17T04:34:51.906Z,58.30
2022-12-17T04:35:51.907Z,59.87
2022-12-17T04:36:52.043Z,60.78
2022-12-17T04:37:51.890Z,61.66
2022-12-17T04:38:51.883Z,56.76
2022-12-17T04:39:51.864Z,60.34
2022-12-17T04:40:51.858Z,60.80
2022-12-17T04:41:51.865Z,55.63
2022-12-17T04:42:51.846Z,65.19
2022-12-17T04:43:55.048Z,59.90
2022-12-17T04:44:53.920Z,60.69
2022-12-17T04:45:52.946Z,54.96
2022-12-17T04:46:52.918Z,60.27
2022-12-17T04:47:53.503Z,57.08
2022-12-17T04:48:53.577Z,52.16
2022-12-17T04:49:52.887Z,55.17
2022-12-17T04:50:52.876Z,56.04
2022-12-17T04:51:52.871Z,60.05
2022-12-17T04:52:52.909Z,63.12
2022-12-17T04:53:52.857Z,56.78
2022-12-17T04:54:52.850Z,54.28
2022-12-17T04:55:52.846Z,58.94
2022-12-17T04:56:52.832Z,59.60
2022-12-17T04:57:52.836Z,62.91
2022-12-17T04:58:52.813Z,59.94
2022-12-17T04:59:52.812Z,58.13
2022-12-17T05:00:52.802Z,58.13
2022-12-17T05:01:52.871Z,53.42
2022-12-17T05:02:53.037Z,59.70
2022-12-17T05:03:52.806Z,59.25
2022-12-17T05:04:53.588Z,64.24
2022-12-17T05:05:52.766Z,60.70
2022-12-17T05:06:52.756Z,62.01
2022-12-17T05:07:52.755Z,64.65
2022-12-17T05:08:52.747Z,59.62
2022-12-17T05:09:52.732Z,59.45
2022-12-17T05:10:52.737Z,57.71
2022-12-17T05:11:52.725Z,60.19
2022-12-17T05:12:52.730Z,54.62
2022-12-17T05:13:52.741Z,59.62
2022-12-17T05:14:52.696Z,54.48
2022-12-17T05:15:53.517Z,48.57
2022-12-17T05:16:53.680Z,58.14
2022-12-17T05:17:52.685Z,62.15
2022-12-17T05:18:52.689Z,52.28
2022-12-17T05:19:52.659Z,60.09
2022-12-17T05:20:52.652Z,55.66
2022-12-17T05:21:53.511Z,52.96
2022-12-17T05:22:52.653Z,54.35
2022-12-17T05:23:52.650Z,58.91
2022-12-17T05:24:52.630Z,52.96
2022-12-17T05:25:52.656Z,49.73
2022-12-17T05:26:54.530Z,56.74
2022-12-17T05:27:52.604Z,55.78
2022-12-17T05:28:52.594Z,60.63
2022-12-17T05:29:52.582Z,67.39
2022-12-17T05:30:52.618Z,60.89
2022-12-17T05:31:52.566Z,60.95
2022-12-17T05:32:52.557Z,59.72
2022-12-17T05:33:52.552Z,55.57
2022-12-17T05:34:52.566Z,58.77
2022-12-17T05:35:52.537Z,61.91
2022-12-17T05:36:52.522Z,64.16
2022-12-17T05:37:52.518Z,63.46
2022-12-17T05:38:52.507Z,57.39
2022-12-17T05:39:52.502Z,51.68
2022-12-17T05:40:53.088Z,59.08
2022-12-17T05:41:52.484Z,58.62
2022-12-17T05:42:52.486Z,64.59
2022-12-17T05:43:52.469Z,58.13
2022-12-17T05:44:52.463Z,59.64
2022-12-17T05:45:52.457Z,60.19
2022-12-17T05:46:52.584Z,61.84
2022-12-17T05:47:52.526Z,59.29
2022-12-17T05:48:52.436Z,60.66
2022-12-17T05:49:52.435Z,63.41
2022-12-17T05:50:52.421Z,56.86
2022-12-17T05:51:52.417Z,55.76
2022-12-17T05:52:52.407Z,58.89
2022-12-17T05:53:52.392Z,60.60
2022-12-17T05:54:52.391Z,63.38
2022-12-17T05:55:52.374Z,52.91
2022-12-17T05:56:52.379Z,59.59
2022-12-17T05:57:56.398Z,59.42
2022-12-17T05:58:53.362Z,59.22
2022-12-17T05:59:52.347Z,58.36
2022-12-17T06:00:52.333Z,63.62
2022-12-17T06:01:53.439Z,63.30
2022-12-17T06:02:52.476Z,62.86
2022-12-17T06:03:52.425Z,61.53
2022-12-17T06:04:52.311Z,61.18
2022-12-17T06:05:52.315Z,55.67
2022-12-17T06:06:52.295Z,59.33
2022-12-17T06:07:52.288Z,56.47
2022-12-17T06:08:52.287Z,57.88
2022-12-17T06:09:52.270Z,62.43
2022-12-17T06:10:52.264Z,61.83
2022-12-17T06:11:52.253Z,60.15
2022-12-17T06:12:52.272Z,61.50
2022-12-17T06:13:52.244Z,60.93
2022-12-17T06:14:52.227Z,62.64
2022-12-17T06:15:52.283Z,61.11
2022-12-17T06:16:52.216Z,60.26
2022-12-17T06:17:52.245Z,58.75
2022-12-17T06:18:52.208Z,55.07
2022-12-17T06:19:52.194Z,64.82
2022-12-17T06:20:52.182Z,64.53
2022-12-17T06:21:52.170Z,61.79
2022-12-17T06:22:52.173Z,62.04
2022-12-17T06:23:52.161Z,65.08
2022-12-17T06:24:52.149Z,60.35
2022-12-17T06:25:52.155Z,62.38
2022-12-17T06:26:52.143Z,59.64
2022-12-17T06:27:52.156Z,64.63
2022-12-17T06:28:53.100Z,62.02
2022-12-17T06:29:52.128Z,62.34
2022-12-17T06:30:52.101Z,61.82
2022-12-17T06:31:52.153Z,60.97
2022-12-17T06:32:52.101Z,64.13
2022-12-17T06:33:53.012Z,60.14
2022-12-17T06:34:52.074Z,62.99
2022-12-17T06:35:52.058Z,58.18
2022-12-17T06:36:53.062Z,63.39
2022-12-17T06:37:52.043Z,62.41
2022-12-17T06:38:52.068Z,65.30
2022-12-17T06:39:52.047Z,67.97
2022-12-17T06:40:52.022Z,61.80
2022-12-17T06:41:52.010Z,60.32
2022-12-17T06:42:52.016Z,62.14
2022-12-17T06:43:51.998Z,65.35
2022-12-17T06:44:52.015Z,62.23
2022-12-17T06:45:51.980Z,63.20
2022-12-17T06:46:52.071Z,61.92
2022-12-17T06:47:51.983Z,64.42
2022-12-17T06:48:51.959Z,58.64
2022-12-17T06:49:55.427Z,63.53
2022-12-17T06:50:52.938Z,62.42
2022-12-17T06:51:51.945Z,60.98
2022-12-17T06:52:51.928Z,64.33
2022-12-17T06:53:51.922Z,63.62
2022-12-17T06:54:51.944Z,64.23
2022-12-17T06:55:51.941Z,63.12
2022-12-17T06:56:51.905Z,63.12
2022-12-17T06:57:51.887Z,58.52
2022-12-17T06:58:51.884Z,61.94
2022-12-17T06:59:51.880Z,63.36
2022-12-17T07:00:51.948Z,62.40
2022-12-17T07:01:52.025Z,64.44
2022-12-17T07:02:52.016Z,64.70
2022-12-17T07:03:51.849Z,61.77
2022-12-17T07:04:51.863Z,62.21
2022-12-17T07:05:51.822Z,62.23
2022-12-17T07:06:51.823Z,58.12
2022-12-17T07:07:51.806Z,59.40
2022-12-17T07:08:52.108Z,61.67
2022-12-17T07:09:51.793Z,63.10
2022-12-17T07:10:51.805Z,60.36
2022-12-17T07:11:52.575Z,61.95
2022-12-17T07:12:51.774Z,62.92
2022-12-17T07:13:51.772Z,63.24
2022-12-17T07:14:51.762Z,61.93
2022-12-17T07:15:51.763Z,63.51
2022-12-17T07:16:51.852Z,62.31
2022-12-17T07:17:51.766Z,61.86
2022-12-17T07:18:51.777Z,61.45
2022-12-17T07:19:51.736Z,63.60
2022-12-17T07:20:51.727Z,65.66
2022-12-17T07:21:51.703Z,64.72
2022-12-17T07:22:52.521Z,64.26
2022-12-17T07:23:51.682Z,64.91
2022-12-17T07:24:51.811Z,65.40
2022-12-17T07:25:51.681Z,60.61
2022-12-17T07:26:51.672Z,65.38
2022-12-17T07:27:51.709Z,67.68
2022-12-17T07:28:51.651Z,65.30
2022-12-17T07:29:51.648Z,64.39
2022-12-17T07:30:55.701Z,64.66
2022-12-17T07:31:52.719Z,63.81
2022-12-17T07:32:51.622Z,63.94
2022-12-17T07:33:51.639Z,65.44
2022-12-17T07:34:51.609Z,61.59
2022-12-17T07:35:51.615Z,63.74
2022-12-17T07:36:51.581Z,63.81
2022-12-17T07:37:51.587Z,67.26
2022-12-17T07:38:51.566Z,67.69
2022-12-17T07:39:51.559Z,65.54
2022-12-17T07:40:51.566Z,62.53
2022-12-17T07:41:51.545Z,65.44
2022-12-17T07:42:51.557Z,63.88
2022-12-17T07:43:53.427Z,67.18
2022-12-17T07:44:52.525Z,63.19
2022-12-17T07:45:51.551Z,62.76
2022-12-17T07:46:51.508Z,66.15
2022-12-17T07:47:51.503Z,65.48
2022-12-17T07:48:51.504Z,63.07
2022-12-17T07:49:51.481Z,63.26
2022-12-17T07:50:51.473Z,65.26
2022-12-17T07:51:52.091Z,67.30
2022-12-17T07:52:51.467Z,67.35
2022-12-17T07:53:51.450Z,65.64
2022-12-17T07:54:51.450Z,64.90
2022-12-17T07:55:51.437Z,65.91
2022-12-17T07:56:51.432Z,64.19
2022-12-17T07:57:51.420Z,64.19
2022-12-17T07:58:51.414Z,63.41
2022-12-17T07:59:51.405Z,62.24
2022-12-17T08:00:51.439Z,65.87
2022-12-17T08:01:51.617Z,66.11
2022-12-17T08:02:51.484Z,67.73
2022-12-17T08:03:51.377Z,68.53
2022-12-17T08:04:51.371Z,66.71
2022-12-17T08:05:51.363Z,64.19
2022-12-17T08:06:55.121Z,64.88
2022-12-17T08:07:52.344Z,66.96
2022-12-17T08:08:51.336Z,62.64
2022-12-17T08:09:51.326Z,66.54
2022-12-17T08:10:51.322Z,63.88
2022-12-17T08:11:51.320Z,63.05
2022-12-17T08:12:51.301Z,63.28
2022-12-17T08:13:51.305Z,64.34
2022-12-17T08:14:51.291Z,65.58
2022-12-17T08:15:51.284Z,64.48
2022-12-17T08:16:51.318Z,65.41
2022-12-17T08:17:51.264Z,68.37
2022-12-17T08:18:51.261Z,65.74
2022-12-17T08:19:51.248Z,67.56
2022-12-17T08:20:51.244Z,68.18
2022-12-17T08:21:51.233Z,65.68
2022-12-17T08:22:51.234Z,65.94
2022-12-17T08:23:51.224Z,66.71
2022-12-17T08:24:51.215Z,66.54
2022-12-17T08:25:51.207Z,66.12
2022-12-17T08:26:51.201Z,64.19
2022-12-17T08:27:51.189Z,68.39
2022-12-17T08:28:51.483Z,66.75
2022-12-17T08:29:51.177Z,64.46
2022-12-17T08:30:51.224Z,67.64
2022-12-17T08:31:51.168Z,65.38
2022-12-17T08:32:51.150Z,67.19
2022-12-17T08:33:51.158Z,63.15
2022-12-17T08:34:51.155Z,65.53
2022-12-17T08:35:51.143Z,65.05
2022-12-17T08:36:51.137Z,68.40
2022-12-17T08:37:51.131Z,67.32
2022-12-17T08:38:51.120Z,65.07
2022-12-17T08:39:51.124Z,64.30
2022-12-17T08:40:51.098Z,66.87
2022-12-17T08:41:54.497Z,65.03
2022-12-17T08:42:52.081Z,63.67
2022-12-17T08:43:51.083Z,67.57
2022-12-17T08:44:51.072Z,64.14
2022-12-17T08:45:51.117Z,68.40
2022-12-17T08:46:51.058Z,67.14
2022-12-17T08:47:51.038Z,66.85
2022-12-17T08:48:51.031Z,64.96
2022-12-17T08:49:51.028Z,66.33
2022-12-17T08:50:51.019Z,68.10
2022-12-17T08:51:51.012Z,65.82
2022-12-17T08:52:51.607Z,67.25
2022-12-17T08:53:50.992Z,68.18
2022-12-17T08:54:51.004Z,67.80
2022-12-17T08:55:50.985Z,68.33
2022-12-17T08:56:51.008Z,66.87
2022-12-17T08:57:51.015Z,64.49
2022-12-17T08:58:55.648Z,65.33
2022-12-17T08:59:52.948Z,66.42
2022-12-17T09:00:51.001Z,68.92
2022-12-17T09:01:51.092Z,68.80
2022-12-17T09:02:51.020Z,66.56
2022-12-17T09:03:50.923Z,66.83
2022-12-17T09:04:50.905Z,68.61
2022-12-17T09:05:50.896Z,65.46
2022-12-17T09:06:53.626Z,66.51
2022-12-17T09:07:51.532Z,65.31
2022-12-17T09:08:50.892Z,67.08
2022-12-17T09:09:50.872Z,67.30
2022-12-17T09:10:50.865Z,66.30
2022-12-17T09:11:50.879Z,67.31
2022-12-17T09:12:50.849Z,68.46
2022-12-17T09:13:50.846Z,65.77
2022-12-17T09:14:50.848Z,66.15
2022-12-17T09:15:50.837Z,66.41
2022-12-17T09:16:50.934Z,64.98
2022-12-17T09:17:50.808Z,65.39
2022-12-17T09:18:50.802Z,66.09
2022-12-17T09:19:50.792Z,66.18
2022-12-17T09:20:50.792Z,67.64
2022-12-17T09:21:50.771Z,69.07
2022-12-17T09:22:50.774Z,69.31
2022-12-17T09:23:50.760Z,68.06
2022-12-17T09:24:50.762Z,67.98
2022-12-17T09:25:56.491Z,66.80
2022-12-17T09:26:52.749Z,66.67
2022-12-17T09:27:50.728Z,71.23
2022-12-17T09:28:50.721Z,68.42
2022-12-17T09:29:50.721Z,67.91
2022-12-17T09:30:50.733Z,66.64
2022-12-17T09:31:50.698Z,65.17
2022-12-17T09:32:50.694Z,68.33
2022-12-17T09:33:50.695Z,67.49
2022-12-17T09:34:50.674Z,67.33
2022-12-17T09:35:50.664Z,65.52
2022-12-17T09:36:51.454Z,67.86
2022-12-17T09:37:51.648Z,66.88
2022-12-17T09:38:50.656Z,66.99
2022-12-17T09:39:50.645Z,66.33
2022-12-17T09:40:50.622Z,68.17
2022-12-17T09:41:50.609Z,67.90
2022-12-17T09:42:54.452Z,66.22
2022-12-17T09:43:52.594Z,68.59
2022-12-17T09:44:50.607Z,66.01
2022-12-17T09:45:50.613Z,65.47
2022-12-17T09:46:50.577Z,68.58
2022-12-17T09:47:50.568Z,65.97
2022-12-17T09:48:50.575Z,67.89
2022-12-17T09:49:50.552Z,67.24
2022-12-17T09:50:50.556Z,67.33
2022-12-17T09:51:50.531Z,66.85
2022-12-17T09:52:51.136Z,67.54
2022-12-17T09:53:50.532Z,68.74
2022-12-17T09:54:50.511Z,66.44
2022-12-17T09:55:50.532Z,67.92
2022-12-17T09:56:50.506Z,67.62
2022-12-17T09:57:50.490Z,68.47
2022-12-17T09:58:50.504Z,67.07
2022-12-17T09:59:50.476Z,67.25
2022-12-17T10:00:50.480Z,67.65
2022-12-17T10:01:50.567Z,69.15
2022-12-17T10:02:50.700Z,67.39
2022-12-17T10:03:50.504Z,69.62
2022-12-17T10:04:51.027Z,67.44
2022-12-17T10:05:50.430Z,66.93
2022-12-17T10:06:51.426Z,67.10
2022-12-17T10:07:50.428Z,68.87
2022-12-17T10:08:50.407Z,66.56
2022-12-17T10:09:50.413Z,67.52
2022-12-17T10:10:50.412Z,66.69
2022-12-17T10:11:50.396Z,66.28
2022-12-17T10:12:50.388Z,67.90
2022-12-17T10:13:50.373Z,68.26
2022-12-17T10:14:50.380Z,66.70
2022-12-17T10:15:50.419Z,68.34
2022-12-17T10:16:50.345Z,68.46
2022-12-17T10:17:50.367Z,68.94
2022-12-17T10:18:50.339Z,67.25
2022-12-17T10:19:50.329Z,67.01
2022-12-17T10:20:50.314Z,68.12
2022-12-17T10:21:50.321Z,70.28
2022-12-17T10:22:50.297Z,67.87
2022-12-17T10:23:50.295Z,69.84
2022-12-17T10:24:50.314Z,68.02
2022-12-17T10:25:50.284Z,68.47
2022-12-17T10:26:51.581Z,68.54
2022-12-17T10:27:50.267Z,68.91
2022-12-17T10:28:50.258Z,69.22
2022-12-17T10:29:50.263Z,67.92
2022-12-17T10:30:50.294Z,67.13
2022-12-17T10:31:50.244Z,68.71
2022-12-17T10:32:50.243Z,67.18
2022-12-17T10:33:50.214Z,67.68
2022-12-17T10:34:50.208Z,66.42
2022-12-17T10:35:50.227Z,64.74
2022-12-17T10:36:50.201Z,68.99
2022-12-17T10:37:50.189Z,69.86
2022-12-17T10:38:50.179Z,66.12
2022-12-17T10:39:50.199Z,67.33
2022-12-17T10:40:50.157Z,68.66
2022-12-17T10:41:50.154Z,68.29
2022-12-17T10:42:50.153Z,67.94
2022-12-17T10:43:50.139Z,69.10
2022-12-17T10:44:50.144Z,68.68
2022-12-17T10:45:50.128Z,66.83
2022-12-17T10:46:50.260Z,66.61
2022-12-17T10:47:51.041Z,67.06
2022-12-17T10:48:50.103Z,67.71
2022-12-17T10:49:50.090Z,66.97
2022-12-17T10:50:50.104Z,65.82
2022-12-17T10:51:50.081Z,67.66
2022-12-17T10:52:50.069Z,66.38
2022-12-17T10:53:50.060Z,68.83
2022-12-17T10:54:50.162Z,68.81
2022-12-17T10:55:50.041Z,66.55
2022-12-17T10:56:50.039Z,68.64
2022-12-17T10:57:50.032Z,68.29
2022-12-17T10:58:50.020Z,67.50
2022-12-17T10:59:50.036Z,66.83
2022-12-17T11:00:50.825Z,68.74
2022-12-17T11:01:51.117Z,68.12
2022-12-17T11:02:50.171Z,68.92
2022-12-17T11:03:50.086Z,68.35
2022-12-17T11:04:49.973Z,68.02
2022-12-17T11:05:52.818Z,67.97
2022-12-17T11:06:49.968Z,66.18
2022-12-17T11:07:49.948Z,66.96
2022-12-17T11:08:49.950Z,65.83
2022-12-17T11:09:49.944Z,67.07
2022-12-17T11:10:49.930Z,68.55
2022-12-17T11:11:49.915Z,65.61
2022-12-17T11:12:49.914Z,66.46
2022-12-17T11:13:49.905Z,68.89
2022-12-17T11:14:49.896Z,66.86
2022-12-17T11:15:49.999Z,66.97
2022-12-17T11:16:49.876Z,68.43
2022-12-17T11:17:49.900Z,65.79
2022-12-17T11:18:49.863Z,69.38
2022-12-17T11:19:49.875Z,66.89
2022-12-17T11:20:49.850Z,69.93
2022-12-17T11:21:49.844Z,69.92
2022-12-17T11:22:49.830Z,66.48
2022-12-17T11:23:49.825Z,68.10
2022-12-17T11:24:49.828Z,66.55
2022-12-17T11:25:49.818Z,68.26
2022-12-17T11:26:49.798Z,67.41
2022-12-17T11:27:49.807Z,68.70
2022-12-17T11:28:49.790Z,69.28
2022-12-17T11:29:49.807Z,67.43
2022-12-17T11:30:56.079Z,68.65
2022-12-17T11:31:49.770Z,67.81
2022-12-17T11:32:49.763Z,68.51
2022-12-17T11:33:49.764Z,68.51
2022-12-17T11:34:49.739Z,67.62
2022-12-17T11:35:50.136Z,66.42
2022-12-17T11:36:49.732Z,68.27
2022-12-17T11:37:49.723Z,69.15
2022-12-17T11:38:49.728Z,68.45
2022-12-17T11:39:50.544Z,70.53
2022-12-17T11:40:50.634Z,68.52
2022-12-17T11:41:49.694Z,65.94
2022-12-17T11:42:49.677Z,67.37
2022-12-17T11:43:50.548Z,67.43
2022-12-17T11:44:50.666Z,68.06
2022-12-17T11:45:49.648Z,68.13
2022-12-17T11:46:49.661Z,66.87
2022-12-17T11:47:53.679Z,68.78
2022-12-17T11:48:50.657Z,67.94
2022-12-17T11:49:50.645Z,68.34
2022-12-17T11:50:49.612Z,72.88
2022-12-17T11:51:50.544Z,69.26
2022-12-17T11:52:49.609Z,69.27
2022-12-17T11:53:49.588Z,69.39
2022-12-17T11:54:49.591Z,69.54
2022-12-17T11:55:49.580Z,66.74
2022-12-17T11:56:49.573Z,66.28
2022-12-17T11:57:49.569Z,67.02
2022-12-17T11:58:49.544Z,65.65
2022-12-17T11:59:54.221Z,67.51
2022-12-17T12:00:51.535Z,68.50
2022-12-17T12:01:49.625Z,67.67
2022-12-17T12:02:49.606Z,69.99
2022-12-17T12:03:49.680Z,69.42
2022-12-17T12:04:49.510Z,65.95
2022-12-17T12:05:54.893Z,66.89
2022-12-17T12:06:51.496Z,68.36
2022-12-17T12:07:49.476Z,67.87
2022-12-17T12:08:49.481Z,66.62
2022-12-17T12:09:50.044Z,68.33
2022-12-17T12:10:49.453Z,67.09
2022-12-17T12:11:49.451Z,66.17
2022-12-17T12:12:50.046Z,66.90
2022-12-17T12:13:49.430Z,67.31
2022-12-17T12:14:49.438Z,66.35
2022-12-17T12:15:49.455Z,67.49
2022-12-17T12:16:49.479Z,67.01
2022-12-17T12:17:49.403Z,66.52
2022-12-17T12:18:49.412Z,68.85
2022-12-17T12:19:49.400Z,68.87
2022-12-17T12:20:49.382Z,67.99
2022-12-17T12:21:49.369Z,67.44
2022-12-17T12:22:49.362Z,66.27
2022-12-17T12:23:49.384Z,66.85
2022-12-17T12:24:49.349Z,67.14
2022-12-17T12:25:49.343Z,66.83
2022-12-17T12:26:49.347Z,67.05
2022-12-17T12:27:49.325Z,68.07
2022-12-17T12:28:49.353Z,68.70
2022-12-17T12:29:49.319Z,68.18
2022-12-17T12:30:49.303Z,67.34
2022-12-17T12:31:49.326Z,67.81
2022-12-17T12:32:49.286Z,68.09
2022-12-17T12:33:49.282Z,68.16
2022-12-17T12:34:49.269Z,67.72
2022-12-17T12:35:49.271Z,66.67
2022-12-17T12:36:49.271Z,67.22
2022-12-17T12:39:56.111Z,65.31
2022-12-17T12:40:56.094Z,65.46
2022-12-17T12:41:56.084Z,66.71
2022-12-17T12:42:56.077Z,67.09
2022-12-17T12:43:57.175Z,66.60
2022-12-17T12:44:57.156Z,63.83
2022-12-17T12:45:57.209Z,65.09
2022-12-17T12:46:57.143Z,66.17
2022-12-17T12:47:57.142Z,66.38
2022-12-17T12:48:57.118Z,66.92
2022-12-17T12:49:57.109Z,67.31
2022-12-17T12:50:57.105Z,67.48
2022-12-17T12:51:57.101Z,67.23
2022-12-17T12:52:57.096Z,67.30
2022-12-17T12:53:57.079Z,66.38
2022-12-17T12:54:57.841Z,66.83
2022-12-17T12:55:57.120Z,66.11
2022-12-17T12:56:57.057Z,65.16
2022-12-17T12:57:57.059Z,67.02